sensor_id;sensor_type;location;lat;lon;timestamp;pressure;altitude;pressure_sealevel;temperature;humidity
29909;BME280;36247;51.952;6.146;2023-09-18T00:00:40;100524.16;;;19.19;100.00
29909;BME280;36247;51.952;6.146;2023-09-18T00:03:08;100525.28;;;19.10;100.00
29909;BME280;36247;51.952;6.146;2023-09-18T00:05:34;100515.22;;;19.18;100.00
29909;BME280;36247;51.952;6.146;2023-09-18T00:08:00;100512.72;;;19.11;100.00
29909;BME280;36247;51.952;6.146;2023-09-18T00:10:28;100504.75;;;19.08;100.00
29909;BME280;36247;51.952;6.146;2023-09-18T00:12:56;100492.38;;;19.03;100.00
29909;BME280;36247;51.952;6.146;2023-09-18T00:15:22;100495.19;;;18.99;100.00
29909;BME280;36247;51.952;6.146;2023-09-18T00:17:49;100483.44;;;19.01;100.00
29909;BME280;36247;51.952;6.146;2023-09-18T00:20:14;100480.06;;;18.95;100.00
29909;BME280;36247;51.952;6.146;2023-09-18T00:22:43;100467.38;;;19.00;100.00
29909;BME280;36247;51.952;6.146;2023-09-18T00:25:09;100470.31;;;18.91;100.00
29909;BME280;36247;51.952;6.146;2023-09-18T00:27:34;100466.38;;;19.04;100.00
29909;BME280;36247;51.952;6.146;2023-09-18T00:30:03;100459.41;;;18.97;100.00
29909;BME280;36247;51.952;6.146;2023-09-18T00:32:29;100443.28;;;18.98;100.00
29909;BME280;36247;51.952;6.146;2023-09-18T00:34:55;100439.50;;;19.06;100.00
29909;BME280;36247;51.952;6.146;2023-09-18T00:37:23;100442.81;;;19.15;100.00
29909;BME280;36247;51.952;6.146;2023-09-18T00:39:49;100448.09;;;19.18;100.00
29909;BME280;36247;51.952;6.146;2023-09-18T00:42:15;100447.13;;;19.21;100.00
29909;BME280;36247;51.952;6.146;2023-09-18T00:44:43;100445.38;;;19.20;100.00
29909;BME280;36247;51.952;6.146;2023-09-18T00:47:10;100437.28;;;19.22;100.00
29909;BME280;36247;51.952;6.146;2023-09-18T00:49:39;100431.81;;;19.25;100.00
29909;BME280;36247;51.952;6.146;2023-09-18T00:52:07;100425.75;;;19.16;100.00
29909;BME280;36247;51.952;6.146;2023-09-18T00:54:37;100417.97;;;19.07;100.00
29909;BME280;36247;51.952;6.146;2023-09-18T00:57:03;100411.69;;;19.08;100.00
29909;BME280;36247;51.952;6.146;2023-09-18T00:59:30;100403.31;;;19.19;100.00
29909;BME280;36247;51.952;6.146;2023-09-18T01:01:57;100410.56;;;19.17;100.00
29909;BME280;36247;51.952;6.146;2023-09-18T01:04:23;100397.22;;;19.14;100.00
29909;BME280;36247;51.952;6.146;2023-09-18T01:06:51;100388.09;;;19.19;100.00
29909;BME280;36247;51.952;6.146;2023-09-18T01:09:17;100385.25;;;19.24;100.00
29909;BME280;36247;51.952;6.146;2023-09-18T01:11:54;100383.38;;;19.28;100.00
29909;BME280;36247;51.952;6.146;2023-09-18T01:14:39;100377.19;;;19.24;100.00
29909;BME280;36247;51.952;6.146;2023-09-18T01:17:11;100372.03;;;19.18;100.00
29909;BME280;36247;51.952;6.146;2023-09-18T01:19:42;100366.66;;;19.18;100.00
29909;BME280;36247;51.952;6.146;2023-09-18T01:22:12;100359.63;;;19.14;100.00
29909;BME280;36247;51.952;6.146;2023-09-18T01:24:39;100356.72;;;19.22;100.00
29909;BME280;36247;51.952;6.146;2023-09-18T01:27:12;100352.97;;;19.27;100.00
29909;BME280;36247;51.952;6.146;2023-09-18T01:29:38;100346.97;;;19.17;100.00
29909;BME280;36247;51.952;6.146;2023-09-18T01:32:05;100335.22;;;19.22;100.00
29909;BME280;36247;51.952;6.146;2023-09-18T01:34:34;100322.91;;;19.14;100.00
29909;BME280;36247;51.952;6.146;2023-09-18T01:37:05;100329.19;;;19.13;100.00
29909;BME280;36247;51.952;6.146;2023-09-18T01:39:32;100322.91;;;19.14;100.00
29909;BME280;36247;51.952;6.146;2023-09-18T01:42:01;100315.59;;;19.19;100.00
29909;BME280;36247;51.952;6.146;2023-09-18T01:44:28;100311.25;;;19.15;100.00
29909;BME280;36247;51.952;6.146;2023-09-18T01:47:01;100308.28;;;19.25;100.00
29909;BME280;36247;51.952;6.146;2023-09-18T01:49:35;100310.69;;;19.34;100.00
29909;BME280;36247;51.952;6.146;2023-09-18T01:52:04;100313.13;;;19.42;100.00
29909;BME280;36247;51.952;6.146;2023-09-18T01:54:31;100311.25;;;19.45;100.00
29909;BME280;36247;51.952;6.146;2023-09-18T01:56:57;100312.81;;;19.51;100.00
29909;BME280;36247;51.952;6.146;2023-09-18T01:59:24;100307.59;;;19.46;100.00
29909;BME280;36247;51.952;6.146;2023-09-18T02:01:53;100309.94;;;19.57;100.00
29909;BME280;36247;51.952;6.146;2023-09-18T02:04:22;100307.25;;;19.57;100.00
29909;BME280;36247;51.952;6.146;2023-09-18T02:06:50;100309.78;;;19.63;100.00
29909;BME280;36247;51.952;6.146;2023-09-18T02:09:16;100309.78;;;19.63;100.00
29909;BME280;36247;51.952;6.146;2023-09-18T02:11:43;100301.81;;;19.60;100.00
29909;BME280;36247;51.952;6.146;2023-09-18T02:14:10;100295.69;;;19.55;100.00
29909;BME280;36247;51.952;6.146;2023-09-18T02:16:40;100296.38;;;19.62;100.00
29909;BME280;36247;51.952;6.146;2023-09-18T02:19:10;100288.66;;;19.51;100.00
29909;BME280;36247;51.952;6.146;2023-09-18T02:21:37;100294.03;;;19.51;100.00
29909;BME280;36247;51.952;6.146;2023-09-18T02:24:05;100286.72;;;19.56;100.00
29909;BME280;36247;51.952;6.146;2023-09-18T02:26:31;100291.13;;;19.57;100.00
29909;BME280;36247;51.952;6.146;2023-09-18T02:29:02;100292.91;;;19.58;100.00
29909;BME280;36247;51.952;6.146;2023-09-18T02:31:29;100292.03;;;19.58;100.00
29909;BME280;36247;51.952;6.146;2023-09-18T02:33:58;100278.53;;;19.59;100.00
29909;BME280;36247;51.952;6.146;2023-09-18T02:36:23;100280.06;;;19.68;100.00
29909;BME280;36247;51.952;6.146;2023-09-18T02:38:49;100278.72;;;19.83;100.00
29909;BME280;36247;51.952;6.146;2023-09-18T02:41:15;100272.19;;;19.90;100.00
29909;BME280;36247;51.952;6.146;2023-09-18T02:43:43;100269.69;;;20.11;100.00
29909;BME280;36247;51.952;6.146;2023-09-18T02:46:09;100250.28;;;20.28;100.00
29909;BME280;36247;51.952;6.146;2023-09-18T02:48:34;100242.16;;;20.29;100.00
29909;BME280;36247;51.952;6.146;2023-09-18T02:51:01;100243.53;;;20.16;100.00
29909;BME280;36247;51.952;6.146;2023-09-18T02:53:29;100235.19;;;20.23;100.00
29909;BME280;36247;51.952;6.146;2023-09-18T02:55:58;100230.13;;;20.14;100.00
29909;BME280;36247;51.952;6.146;2023-09-18T02:58:24;100213.59;;;20.25;100.00
29909;BME280;36247;51.952;6.146;2023-09-18T03:00:53;100210.16;;;20.21;100.00
29909;BME280;36247;51.952;6.146;2023-09-18T03:03:25;100202.03;;;20.23;100.00
29909;BME280;36247;51.952;6.146;2023-09-18T03:05:52;100199.41;;;20.21;100.00
29909;BME280;36247;51.952;6.146;2023-09-18T03:08:17;100190.44;;;20.21;100.00
29909;BME280;36247;51.952;6.146;2023-09-18T03:10:43;100176.56;;;20.08;100.00
29909;BME280;36247;51.952;6.146;2023-09-18T03:13:10;100173.44;;;20.20;100.00
29909;BME280;36247;51.952;6.146;2023-09-18T03:15:37;100161.75;;;20.21;100.00
29909;BME280;36247;51.952;6.146;2023-09-18T03:18:05;100152.91;;;20.18;100.00
29909;BME280;36247;51.952;6.146;2023-09-18T03:20:31;100153.69;;;20.21;100.00
29909;BME280;36247;51.952;6.146;2023-09-18T03:22:59;100144.88;;;20.16;100.00
29909;BME280;36247;51.952;6.146;2023-09-18T03:25:27;100138.41;;;20.22;100.00
29909;BME280;36247;51.952;6.146;2023-09-18T03:27:54;100135.72;;;20.22;100.00
29909;BME280;36247;51.952;6.146;2023-09-18T03:30:25;100136.47;;;20.25;100.00
29909;BME280;36247;51.952;6.146;2023-09-18T03:32:53;100126.72;;;20.23;100.00
29909;BME280;36247;51.952;6.146;2023-09-18T03:35:21;100119.69;;;20.19;100.00
29909;BME280;36247;51.952;6.146;2023-09-18T03:37:50;100113.34;;;20.21;100.00
29909;BME280;36247;51.952;6.146;2023-09-18T03:40:18;100110.00;;;20.38;100.00
29909;BME280;36247;51.952;6.146;2023-09-18T03:42:44;100111.69;;;20.41;100.00
29909;BME280;36247;51.952;6.146;2023-09-18T03:45:10;100112.16;;;20.29;100.00
29909;BME280;36247;51.952;6.146;2023-09-18T03:47:38;100110.88;;;20.39;100.00
29909;BME280;36247;51.952;6.146;2023-09-18T03:50:06;100109.31;;;20.33;100.00
29909;BME280;36247;51.952;6.146;2023-09-18T03:52:32;100111.63;;;20.42;100.00
29909;BME280;36247;51.952;6.146;2023-09-18T03:54:58;100118.75;;;20.43;100.00
29909;BME280;36247;51.952;6.146;2023-09-18T03:57:24;100112.19;;;20.51;100.00
29909;BME280;36247;51.952;6.146;2023-09-18T03:59:50;100133.78;;;20.49;100.00
29909;BME280;36247;51.952;6.146;2023-09-18T04:02:15;100137.06;;;20.57;100.00
29909;BME280;36247;51.952;6.146;2023-09-18T04:04:41;100129.47;;;20.69;100.00
29909;BME280;36247;51.952;6.146;2023-09-18T04:07:08;100144.06;;;20.61;100.00
29909;BME280;36247;51.952;6.146;2023-09-18T04:09:34;100151.97;;;20.68;100.00
29909;BME280;36247;51.952;6.146;2023-09-18T04:12:03;100158.16;;;20.70;100.00
29909;BME280;36247;51.952;6.146;2023-09-18T04:14:33;100150.66;;;20.78;100.00
29909;BME280;36247;51.952;6.146;2023-09-18T04:16:58;100143.69;;;20.72;100.00
29909;BME280;36247;51.952;6.146;2023-09-18T04:19:26;100138.50;;;20.68;100.00
29909;BME280;36247;51.952;6.146;2023-09-18T04:21:52;100129.47;;;20.69;100.00
29909;BME280;36247;51.952;6.146;2023-09-18T04:24:18;100127.25;;;20.80;100.00
29909;BME280;36247;51.952;6.146;2023-09-18T04:26:43;100130.38;;;20.69;100.00
29909;BME280;36247;51.952;6.146;2023-09-18T04:29:09;100134.72;;;20.72;100.00
29909;BME280;36247;51.952;6.146;2023-09-18T04:31:36;100127.50;;;20.74;100.00
29909;BME280;36247;51.952;6.146;2023-09-18T04:34:03;100121.59;;;20.63;100.00
29909;BME280;36247;51.952;6.146;2023-09-18T04:36:28;100112.53;;;20.67;100.00
29909;BME280;36247;51.952;6.146;2023-09-18T04:38:54;100108.22;;;20.61;100.00
29909;BME280;36247;51.952;6.146;2023-09-18T04:41:25;100094.16;;;20.54;100.00
29909;BME280;36247;51.952;6.146;2023-09-18T04:43:59;100089.69;;;20.53;100.00
29909;BME280;36247;51.952;6.146;2023-09-18T04:46:26;100092.38;;;20.53;100.00
29909;BME280;36247;51.952;6.146;2023-09-18T04:48:52;100077.16;;;20.52;100.00
29909;BME280;36247;51.952;6.146;2023-09-18T04:51:18;100079.84;;;20.52;100.00
29909;BME280;36247;51.952;6.146;2023-09-18T04:53:44;100083.66;;;20.47;100.00
29909;BME280;36247;51.952;6.146;2023-09-18T04:56:09;100076.22;;;20.53;100.00
29909;BME280;36247;51.952;6.146;2023-09-18T04:58:36;100079.78;;;20.54;100.00
29909;BME280;36247;51.952;6.146;2023-09-18T05:01:03;100081.63;;;20.53;100.00
29909;BME280;36247;51.952;6.146;2023-09-18T05:03:39;100076.34;;;20.50;100.00
29909;BME280;36247;51.952;6.146;2023-09-18T05:06:05;100096.84;;;20.54;100.00
29909;BME280;36247;51.952;6.146;2023-09-18T05:08:31;100098.44;;;20.58;100.00
29909;BME280;36247;51.952;6.146;2023-09-18T05:11:00;100103.47;;;20.69;100.00
29909;BME280;36247;51.952;6.146;2023-09-18T05:13:27;100106.56;;;20.81;100.00
29909;BME280;36247;51.952;6.146;2023-09-18T05:15:54;100089.38;;;20.85;100.00
29909;BME280;36247;51.952;6.146;2023-09-18T05:18:20;100078.78;;;20.80;100.00
29909;BME280;36247;51.952;6.146;2023-09-18T05:20:45;100078.53;;;20.86;100.00
29909;BME280;36247;51.952;6.146;2023-09-18T05:23:11;100077.81;;;20.83;100.00
29909;BME280;36247;51.952;6.146;2023-09-18T05:25:41;100075.16;;;20.81;100.00
29909;BME280;36247;51.952;6.146;2023-09-18T05:28:09;100065.72;;;20.71;100.00
29909;BME280;36247;51.952;6.146;2023-09-18T05:30:35;100055.75;;;20.73;100.00
29909;BME280;36247;51.952;6.146;2023-09-18T05:33:04;100062.75;;;20.77;100.00
29909;BME280;36247;51.952;6.146;2023-09-18T05:35:32;100064.56;;;20.76;100.00
29909;BME280;36247;51.952;6.146;2023-09-18T05:37:58;100075.31;;;20.76;100.00
29909;BME280;36247;51.952;6.146;2023-09-18T05:40:26;100085.22;;;20.76;100.00
29909;BME280;36247;51.952;6.146;2023-09-18T05:42:54;100093.44;;;20.73;100.00
29909;BME280;36247;51.952;6.146;2023-09-18T05:45:24;100096.94;;;20.75;100.00
29909;BME280;36247;51.952;6.146;2023-09-18T05:47:57;100110.56;;;20.70;100.00
29909;BME280;36247;51.952;6.146;2023-09-18T05:50:31;100113.19;;;20.72;100.00
29909;BME280;36247;51.952;6.146;2023-09-18T05:53:01;100120.81;;;20.60;100.00
29909;BME280;36247;51.952;6.146;2023-09-18T05:55:33;100135.06;;;20.63;100.00
29909;BME280;36247;51.952;6.146;2023-09-18T05:58:00;100143.25;;;20.59;100.00
29909;BME280;36247;51.952;6.146;2023-09-18T06:00:26;100141.88;;;20.73;100.00
29909;BME280;36247;51.952;6.146;2023-09-18T06:02:53;100148.53;;;20.63;100.00
29909;BME280;36247;51.952;6.146;2023-09-18T06:05:19;100160.84;;;20.70;100.00
29909;BME280;36247;51.952;6.146;2023-09-18T06:07:50;100157.41;;;20.66;100.00
29909;BME280;36247;51.952;6.146;2023-09-18T06:10:16;100162.81;;;20.65;100.00
29909;BME280;36247;51.952;6.146;2023-09-18T06:12:44;100175.94;;;20.74;100.00
29909;BME280;36247;51.952;6.146;2023-09-18T06:15:13;100177.59;;;20.78;100.00
29909;BME280;36247;51.952;6.146;2023-09-18T06:17:43;100180.50;;;20.72;100.00
29909;BME280;36247;51.952;6.146;2023-09-18T06:20:10;100177.59;;;20.78;100.00
29909;BME280;36247;51.952;6.146;2023-09-18T06:22:38;100175.03;;;20.73;100.00
29909;BME280;36247;51.952;6.146;2023-09-18T06:25:08;100158.78;;;20.76;100.00
29909;BME280;36247;51.952;6.146;2023-09-18T06:27:38;100159.97;;;20.69;100.00
29909;BME280;36247;51.952;6.146;2023-09-18T06:30:08;100151.53;;;20.78;100.00
29909;BME280;36247;51.952;6.146;2023-09-18T06:32:34;100156.00;;;20.80;100.00
29909;BME280;36247;51.952;6.146;2023-09-18T06:35:03;100161.00;;;20.89;100.00
29909;BME280;36247;51.952;6.146;2023-09-18T06:37:29;100166.31;;;20.90;100.00
29909;BME280;36247;51.952;6.146;2023-09-18T06:39:58;100155.03;;;20.81;100.00
29909;BME280;36247;51.952;6.146;2023-09-18T06:42:24;100161.19;;;20.84;100.00
29909;BME280;36247;51.952;6.146;2023-09-18T06:44:56;100166.91;;;20.75;100.00
29909;BME280;36247;51.952;6.146;2023-09-18T06:47:22;100172.28;;;20.75;100.00
29909;BME280;36247;51.952;6.146;2023-09-18T06:49:50;100171.84;;;20.87;100.00
29909;BME280;36247;51.952;6.146;2023-09-18T06:52:16;100174.19;;;20.73;100.00
29909;BME280;36247;51.952;6.146;2023-09-18T06:54:42;100166.09;;;20.73;100.00
29909;BME280;36247;51.952;6.146;2023-09-18T06:57:09;100168.84;;;20.71;100.00
29909;BME280;36247;51.952;6.146;2023-09-18T06:59:38;100161.44;;;20.78;100.00
29909;BME280;36247;51.952;6.146;2023-09-18T07:02:04;100166.09;;;20.73;100.00
29909;BME280;36247;51.952;6.146;2023-09-18T07:04:30;100170.81;;;20.68;100.00
29909;BME280;36247;51.952;6.146;2023-09-18T07:06:56;100182.06;;;20.77;100.00
29909;BME280;36247;51.952;6.146;2023-09-18T07:09:22;100185.94;;;20.70;100.00
29909;BME280;36247;51.952;6.146;2023-09-18T07:11:52;100179.84;;;20.65;100.00
29909;BME280;36247;51.952;6.146;2023-09-18T07:14:17;100194.00;;;20.70;100.00
29909;BME280;36247;51.952;6.146;2023-09-18T07:16:43;100193.94;;;20.72;100.00
29909;BME280;36247;51.952;6.146;2023-09-18T07:19:09;100196.31;;;20.81;100.00
29909;BME280;36247;51.952;6.146;2023-09-18T07:21:37;100182.13;;;20.76;100.00
29909;BME280;36247;51.952;6.146;2023-09-18T07:24:06;100190.31;;;20.73;100.00
29909;BME280;36247;51.952;6.146;2023-09-18T07:26:31;100193.81;;;20.75;100.00
29909;BME280;36247;51.952;6.146;2023-09-18T07:28:57;100190.81;;;20.84;100.00
29909;BME280;36247;51.952;6.146;2023-09-18T07:31:22;100179.44;;;20.76;100.00
29909;BME280;36247;51.952;6.146;2023-09-18T07:33:48;100188.16;;;20.83;100.00
29909;BME280;36247;51.952;6.146;2023-09-18T07:36:14;100208.00;;;20.80;100.00
29909;BME280;36247;51.952;6.146;2023-09-18T07:38:40;100190.56;;;20.90;100.00
29909;BME280;36247;51.952;6.146;2023-09-18T07:41:08;100189.38;;;20.98;100.00
29909;BME280;36247;51.952;6.146;2023-09-18T07:43:34;100179.78;;;20.90;100.00
29909;BME280;36247;51.952;6.146;2023-09-18T07:46:00;100195.84;;;21.16;100.00
29909;BME280;36247;51.952;6.146;2023-09-18T07:48:27;100203.28;;;21.09;100.00
29909;BME280;36247;51.952;6.146;2023-09-18T07:50:53;100222.38;;;21.03;100.00
29909;BME280;36247;51.952;6.146;2023-09-18T07:53:22;100208.78;;;21.06;100.00
29909;BME280;36247;51.952;6.146;2023-09-18T07:55:48;100204.31;;;20.83;100.00
29909;BME280;36247;51.952;6.146;2023-09-18T07:58:22;100210.09;;;20.95;100.00
29909;BME280;36247;51.952;6.146;2023-09-18T08:00:47;100222.16;;;20.85;100.00
29909;BME280;36247;51.952;6.146;2023-09-18T08:03:14;100201.44;;;20.87;100.00
29909;BME280;36247;51.952;6.146;2023-09-18T08:05:40;100202.13;;;20.92;100.00
29909;BME280;36247;51.952;6.146;2023-09-18T08:08:05;100215.28;;;20.78;100.00
29909;BME280;36247;51.952;6.146;2023-09-18T08:10:31;100234.13;;;21.00;100.00
29909;BME280;36247;51.952;6.146;2023-09-18T08:12:57;100238.19;;;20.88;100.00
29909;BME280;36247;51.952;6.146;2023-09-18T08:15:22;100230.69;;;20.96;100.00
29909;BME280;36247;51.952;6.146;2023-09-18T08:17:48;100231.44;;;21.00;100.00
29909;BME280;36247;51.952;6.146;2023-09-18T08:20:15;100228.00;;;20.96;100.00
29909;BME280;36247;51.952;6.146;2023-09-18T08:22:42;100232.84;;;21.10;100.00
29909;BME280;36247;51.952;6.146;2023-09-18T08:25:10;100222.06;;;21.10;100.00
29909;BME280;36247;51.952;6.146;2023-09-18T08:27:40;100226.28;;;21.18;100.00
29909;BME280;36247;51.952;6.146;2023-09-18T08:30:13;100232.88;;;21.33;100.00
29909;BME280;36247;51.952;6.146;2023-09-18T08:32:41;100223.84;;;21.34;100.00
29909;BME280;36247;51.952;6.146;2023-09-18T08:35:08;100231.91;;;21.11;100.00
29909;BME280;36247;51.952;6.146;2023-09-18T08:37:34;100233.88;;;21.08;100.00
29909;BME280;36247;51.952;6.146;2023-09-18T08:40:00;100237.78;;;21.21;100.00
29909;BME280;36247;51.952;6.146;2023-09-18T08:42:29;100237.88;;;21.42;100.00
29909;BME280;36247;51.952;6.146;2023-09-18T08:44:58;100232.66;;;21.37;100.00
29909;BME280;36247;51.952;6.146;2023-09-18T08:47:26;100240.56;;;21.42;100.00
29909;BME280;36247;51.952;6.146;2023-09-18T08:49:54;100250.66;;;21.37;100.00
29909;BME280;36247;51.952;6.146;2023-09-18T08:52:20;100245.03;;;21.43;100.00
29909;BME280;36247;51.952;6.146;2023-09-18T08:54:46;100247.25;;;21.31;100.00
29909;BME280;36247;51.952;6.146;2023-09-18T08:57:12;100245.88;;;21.43;100.00
29909;BME280;36247;51.952;6.146;2023-09-18T08:59:40;100245.28;;;21.37;100.00
29909;BME280;36247;51.952;6.146;2023-09-18T09:02:07;100247.66;;;21.44;100.00
29909;BME280;36247;51.952;6.146;2023-09-18T09:04:38;100240.91;;;21.78;100.00
29909;BME280;36247;51.952;6.146;2023-09-18T09:07:05;100263.22;;;21.60;100.00
29909;BME280;36247;51.952;6.146;2023-09-18T09:09:30;100255.25;;;21.79;100.00
29909;BME280;36247;51.952;6.146;2023-09-18T09:11:56;100283.78;;;21.84;100.00
29909;BME280;36247;51.952;6.146;2023-09-18T09:14:22;100273.59;;;21.71;100.00
29909;BME280;36247;51.952;6.146;2023-09-18T09:16:54;100270.56;;;21.56;100.00
29909;BME280;36247;51.952;6.146;2023-09-18T09:19:29;100274.25;;;21.54;100.00
29909;BME280;36247;51.952;6.146;2023-09-18T09:21:59;100269.66;;;21.78;100.00
29909;BME280;36247;51.952;6.146;2023-09-18T09:27:03;100285.44;;;21.43;100.00
29909;BME280;36247;51.952;6.146;2023-09-18T09:29:29;100272.34;;;21.34;100.00
29909;BME280;36247;51.952;6.146;2023-09-18T09:32:15;100269.94;;;21.48;100.00
29909;BME280;36247;51.952;6.146;2023-09-18T09:34:43;100268.88;;;21.54;100.00
29909;BME280;36247;51.952;6.146;2023-09-18T09:37:09;100259.91;;;21.53;100.00
29909;BME280;36247;51.952;6.146;2023-09-18T09:39:49;100264.38;;;21.54;100.00
29909;BME280;36247;51.952;6.146;2023-09-18T09:42:17;100257.13;;;23.19;100.00
29909;BME280;36247;51.952;6.146;2023-09-18T09:45:11;100261.88;;;22.75;100.00
29909;BME280;36247;51.952;6.146;2023-09-18T09:47:44;100272.50;;;21.75;100.00
29909;BME280;36247;51.952;6.146;2023-09-18T09:50:15;100278.28;;;22.70;100.00
29909;BME280;36247;51.952;6.146;2023-09-18T09:52:46;100284.69;;;22.67;100.00
29909;BME280;36247;51.952;6.146;2023-09-18T09:55:31;100281.50;;;22.39;100.00
29909;BME280;36247;51.952;6.146;2023-09-18T09:58:07;100254.56;;;24.08;100.00
29909;BME280;36247;51.952;6.146;2023-09-18T10:03:19;100261.06;;;24.39;100.00
29909;BME280;36247;51.952;6.146;2023-09-18T10:05:54;100258.19;;;24.60;100.00
29909;BME280;36247;51.952;6.146;2023-09-18T10:08:24;100268.75;;;24.64;100.00
29909;BME280;36247;51.952;6.146;2023-09-18T10:10:54;100283.28;;;24.63;100.00
29909;BME280;36247;51.952;6.146;2023-09-18T10:13:44;100267.16;;;25.43;100.00
29909;BME280;36247;51.952;6.146;2023-09-18T10:16:13;100274.56;;;25.87;100.00
29909;BME280;36247;51.952;6.146;2023-09-18T10:19:17;100278.28;;;26.76;100.00
29909;BME280;36247;51.952;6.146;2023-09-18T10:21:59;100294.25;;;26.52;100.00
29909;BME280;36247;51.952;6.146;2023-09-18T10:24:30;100292.28;;;26.09;100.00
29909;BME280;36247;51.952;6.146;2023-09-18T10:27:01;100294.16;;;26.09;100.00
29909;BME280;36247;51.952;6.146;2023-09-18T10:29:30;100313.69;;;24.69;100.00
29909;BME280;36247;51.952;6.146;2023-09-18T10:32:04;100308.34;;;23.78;100.00
29909;BME280;36247;51.952;6.146;2023-09-18T10:34:30;100292.19;;;24.13;100.00
29909;BME280;36247;51.952;6.146;2023-09-18T10:37:00;100295.22;;;24.07;100.00
29909;BME280;36247;51.952;6.146;2023-09-18T10:39:28;100290.94;;;24.20;100.00
29909;BME280;36247;51.952;6.146;2023-09-18T10:41:56;100305.16;;;23.51;100.00
29909;BME280;36247;51.952;6.146;2023-09-18T10:44:28;100313.13;;;23.54;100.00
29909;BME280;36247;51.952;6.146;2023-09-18T10:46:58;100308.16;;;23.64;100.00
29909;BME280;36247;51.952;6.146;2023-09-18T10:49:31;100315.81;;;23.73;100.00
29909;BME280;36247;51.952;6.146;2023-09-18T10:52:01;100322.13;;;23.16;100.00
29909;BME280;36247;51.952;6.146;2023-09-18T10:54:28;100312.66;;;23.06;100.00
29909;BME280;36247;51.952;6.146;2023-09-18T10:56:59;100323.59;;;23.23;100.00
29909;BME280;36247;51.952;6.146;2023-09-18T10:59:27;100317.72;;;23.14;100.00
29909;BME280;36247;51.952;6.146;2023-09-18T11:01:54;100316.88;;;23.32;100.00
29909;BME280;36247;51.952;6.146;2023-09-18T11:04:20;100309.25;;;23.59;100.00
29909;BME280;36247;51.952;6.146;2023-09-18T11:09:29;100306.25;;;23.66;100.00
29909;BME280;36247;51.952;6.146;2023-09-18T11:14:44;100305.41;;;23.46;100.00
29909;BME280;36247;51.952;6.146;2023-09-18T11:22:47;100305.69;;;23.59;100.00
29909;BME280;36247;51.952;6.146;2023-09-18T11:28:04;100288.94;;;24.59;100.00
29909;BME280;36247;51.952;6.146;2023-09-18T11:33:44;100289.94;;;26.03;100.00
29909;BME280;36247;51.952;6.146;2023-09-18T11:38:52;100286.38;;;26.92;100.00
29909;BME280;36247;51.952;6.146;2023-09-18T11:41:21;100300.84;;;26.48;100.00
29909;BME280;36247;51.952;6.146;2023-09-18T11:43:47;100298.16;;;26.32;100.00
29909;BME280;36247;51.952;6.146;2023-09-18T11:46:17;100284.28;;;27.39;100.00
29909;BME280;36247;51.952;6.146;2023-09-18T11:48:44;100288.06;;;26.19;100.00
29909;BME280;36247;51.952;6.146;2023-09-18T11:51:12;100279.56;;;26.99;100.00
29909;BME280;36247;51.952;6.146;2023-09-18T11:53:43;100284.09;;;27.27;100.00
29909;BME280;36247;51.952;6.146;2023-09-18T11:56:10;100278.03;;;25.26;100.00
29909;BME280;36247;51.952;6.146;2023-09-18T11:58:47;100277.38;;;24.38;100.00
29909;BME280;36247;51.952;6.146;2023-09-18T12:01:13;100281.91;;;24.20;100.00
29909;BME280;36247;51.952;6.146;2023-09-18T12:03:41;100297.91;;;23.89;100.00
29909;BME280;36247;51.952;6.146;2023-09-18T12:06:07;100286.53;;;23.64;100.00
29909;BME280;36247;51.952;6.146;2023-09-18T12:08:35;100306.00;;;23.70;100.00
29909;BME280;36247;51.952;6.146;2023-09-18T12:11:04;100321.97;;;22.80;100.00
29909;BME280;36247;51.952;6.146;2023-09-18T12:13:33;100314.03;;;22.13;100.00
29909;BME280;36247;51.952;6.146;2023-09-18T12:16:03;100294.81;;;21.56;100.00
29909;BME280;36247;51.952;6.146;2023-09-18T12:18:35;100297.41;;;21.36;100.00
29909;BME280;36247;51.952;6.146;2023-09-18T12:21:06;100307.53;;;21.75;100.00
29909;BME280;36247;51.952;6.146;2023-09-18T12:23:42;100294.06;;;22.40;100.00
29909;BME280;36247;51.952;6.146;2023-09-18T12:26:11;100298.47;;;22.20;100.00
29909;BME280;36247;51.952;6.146;2023-09-18T12:28:43;100300.19;;;22.43;100.00
29909;BME280;36247;51.952;6.146;2023-09-18T12:31:15;100286.53;;;22.67;100.00
29909;BME280;36247;51.952;6.146;2023-09-18T12:33:43;100283.66;;;22.91;100.00
29909;BME280;36247;51.952;6.146;2023-09-18T12:36:19;100284.31;;;22.77;100.00
29909;BME280;36247;51.952;6.146;2023-09-18T12:38:55;100283.44;;;23.16;100.00
29909;BME280;36247;51.952;6.146;2023-09-18T12:41:20;100281.41;;;22.81;100.00
29909;BME280;36247;51.952;6.146;2023-09-18T12:43:46;100282.94;;;23.63;100.00
29909;BME280;36247;51.952;6.146;2023-09-18T12:46:12;100267.16;;;23.54;100.00
29909;BME280;36247;51.952;6.146;2023-09-18T12:48:40;100270.03;;;23.51;100.00
29909;BME280;36247;51.952;6.146;2023-09-18T12:51:11;100272.97;;;23.83;100.00
29909;BME280;36247;51.952;6.146;2023-09-18T12:53:38;100258.94;;;23.93;100.00
29909;BME280;36247;51.952;6.146;2023-09-18T12:56:12;100265.06;;;24.15;100.00
29909;BME280;36247;51.952;6.146;2023-09-18T12:58:39;100263.88;;;23.84;100.00
29909;BME280;36247;51.952;6.146;2023-09-18T13:01:07;100254.69;;;24.23;100.00
29909;BME280;36247;51.952;6.146;2023-09-18T13:03:42;100259.41;;;24.37;100.00
29909;BME280;36247;51.952;6.146;2023-09-18T13:06:15;100250.97;;;24.60;100.00
29909;BME280;36247;51.952;6.146;2023-09-18T13:08:43;100253.97;;;24.54;100.00
29909;BME280;36247;51.952;6.146;2023-09-18T13:11:09;100254.34;;;24.46;100.00